Time;durP1;ratioP1;P1;durP2;ratioP2;P2;SDS_P1;SDS_P2;PMS_P1;PMS_P2;Temp;Humidity;BMP_temperature;BMP_pressure;BME280_temperature;BME280_humidity;BME280_pressure;Samples;Min_cycle;Max_cycle;Signal;HPM_P1;HPM_P2
2023/01/04 00:03:07;;;;;;;11.10;3.80;;;;;;;2.56;100.00;100846.27;102462;1299;67841;-66
2023/01/04 00:06:03;;;;;;;8.70;3.60;;;;;;;2.51;100.00;100838.70;102454;1297;73253;-66
2023/01/04 00:08:53;;;;;;;12.50;3.80;;;;;;;2.44;100.00;100836.84;102581;1291;59781;-65
2023/01/04 00:11:41;;;;;;;16.00;4.60;;;;;;;2.37;100.00;100837.39;102531;1297;59644;-67
2023/01/04 00:14:29;;;;;;;10.30;4.10;;;;;;;2.31;100.00;100836.16;102501;1299;74012;-66
2023/01/04 00:17:18;;;;;;;12.30;4.00;;;;;;;2.28;100.00;100835.05;102508;1291;68646;-66
2023/01/04 00:20:08;;;;;;;11.20;3.90;;;;;;;2.26;100.00;100833.69;102406;1292;72704;-65
2023/01/04 00:22:57;;;;;;;12.30;4.20;;;;;;;2.26;100.00;100834.05;102608;1297;59689;-65
2023/01/04 00:25:48;;;;;;;11.80;4.40;;;;;;;2.26;100.00;100835.80;102449;1299;61093;-64
2023/01/04 00:28:37;;;;;;;8.60;3.60;;;;;;;2.25;100.00;100845.11;102381;1292;73914;-64
2023/01/04 00:31:28;;;;;;;9.90;4.10;;;;;;;2.24;100.00;100843.74;102487;1297;67926;-66
2023/01/04 00:34:18;;;;;;;14.00;4.70;;;;;;;2.21;100.00;100844.88;102361;1290;73665;-66
2023/01/04 00:37:06;;;;;;;12.80;4.20;;;;;;;2.17;100.00;100847.79;102211;1299;61170;-64
2023/01/04 00:39:55;;;;;;;11.90;3.70;;;;;;;2.13;100.00;100848.11;102412;1291;59883;-64
2023/01/04 00:42:43;;;;;;;11.80;3.80;;;;;;;2.10;100.00;100846.96;101752;1291;1003407;-66
2023/01/04 00:45:32;;;;;;;14.40;4.10;;;;;;;2.09;100.00;100849.63;102210;1299;67926;-64
2023/01/04 00:48:20;;;;;;;9.60;3.80;;;;;;;2.08;100.00;100844.75;102430;1291;73578;-62
2023/01/04 00:51:08;;;;;;;13.70;3.90;;;;;;;2.02;100.00;100838.96;101647;1290;1002996;-64
2023/01/04 00:53:59;;;;;;;9.00;3.60;;;;;;;1.99;100.00;100835.02;102483;1291;60236;-64
2023/01/04 00:56:49;;;;;;;12.60;4.30;;;;;;;1.95;100.00;100839.54;102320;1295;72025;-64
2023/01/04 00:59:37;;;;;;;12.90;4.60;;;;;;;1.90;100.00;100840.56;101672;1291;1003023;-64
2023/01/04 01:02:25;;;;;;;11.60;4.10;;;;;;;1.85;100.00;100841.23;102435;1291;72704;-63
2023/01/04 01:05:15;;;;;;;10.10;3.50;;;;;;;1.78;100.00;100840.71;102166;1291;59757;-65
2023/01/04 01:08:23;;;;;;;11.90;3.70;;;;;;;1.69;100.00;100833.13;102232;1291;60295;-63
2023/01/04 01:11:14;;;;;;;11.80;4.50;;;;;;;1.65;100.00;100844.05;102486;1297;73973;-66
2023/01/04 01:14:04;;;;;;;14.00;4.90;;;;;;;1.59;100.00;100843.88;102448;1294;68007;-65
2023/01/04 01:16:53;;;;;;;11.70;4.90;;;;;;;1.53;100.00;100845.63;102672;1291;73792;-65
2023/01/04 01:19:44;;;;;;;13.00;5.10;;;;;;;1.50;100.00;100850.95;102425;1297;59777;-64
2023/01/04 01:22:34;;;;;;;15.30;4.90;;;;;;;1.49;100.00;100847.83;102593;1299;59655;-65
2023/01/04 01:25:23;;;;;;;11.60;4.60;;;;;;;1.49;100.00;100838.23;102399;1289;73792;-63
2023/01/04 01:28:12;;;;;;;12.70;4.70;;;;;;;1.49;100.00;100829.65;102406;1291;67746;-65
2023/01/04 01:31:26;;;;;;;14.40;4.80;;;;;;;1.48;100.00;100821.63;102401;1297;72535;-62
2023/01/04 01:34:14;;;;;;;9.40;3.90;;;;;;;1.48;100.00;100823.56;102406;1299;59718;-63
2023/01/04 01:37:05;;;;;;;12.40;4.20;;;;;;;1.46;100.00;100809.79;102492;1282;60252;-63
2023/01/04 01:39:53;;;;;;;9.70;3.60;;;;;;;1.44;100.00;100810.70;102406;1299;74221;-64
2023/01/04 01:42:42;;;;;;;11.30;3.40;;;;;;;1.40;100.00;100811.55;102427;1289;67829;-62
2023/01/04 01:45:33;;;;;;;11.30;3.90;;;;;;;1.34;100.00;100804.88;102416;1292;71726;-63
2023/01/04 01:48:27;;;;;;;10.70;3.60;;;;;;;1.27;100.00;100806.47;102416;1297;59643;-64
2023/01/04 01:51:18;;;;;;;12.10;4.60;;;;;;;1.21;100.00;100805.92;102400;1297;59651;-63
2023/01/04 01:54:19;;;;;;;12.70;5.50;;;;;;;1.16;100.00;100805.19;102447;1291;72765;-64
2023/01/04 01:57:12;;;;;;;10.80;4.40;;;;;;;1.11;100.00;100804.63;102404;1292;67935;-63
2023/01/04 02:00:13;;;;;;;12.30;4.60;;;;;;;1.07;100.00;100801.42;102285;1291;74469;-63
2023/01/04 02:03:15;;;;;;;10.90;5.20;;;;;;;1.04;100.00;100797.98;102402;1292;59763;-63
2023/01/04 02:06:09;;;;;;;11.80;4.70;;;;;;;1.03;100.00;100795.05;102266;1295;61152;-65
2023/01/04 02:09:00;;;;;;;11.30;4.50;;;;;;;1.02;100.00;100787.02;102546;1297;72056;-63
2023/01/04 02:11:48;;;;;;;11.70;4.20;;;;;;;1.04;100.00;100785.95;102478;1297;66833;-64
2023/01/04 02:14:38;;;;;;;12.50;4.70;;;;;;;1.03;100.00;100776.34;102413;1297;73388;-63
2023/01/04 02:17:30;;;;;;;11.90;4.80;;;;;;;1.02;100.00;100778.65;102562;1292;59544;-64
2023/01/04 02:20:25;;;;;;;11.50;4.00;;;;;;;0.99;100.00;100779.23;102368;1297;61361;-65
2023/01/04 02:23:50;;;;;;;10.30;4.20;;;;;;;0.96;100.00;100776.18;102413;1289;74020;-63
2023/01/04 02:26:54;;;;;;;12.10;5.00;;;;;;;0.92;100.00;100775.95;102606;1294;67554;-64
2023/01/04 02:30:08;;;;;;;12.20;5.50;;;;;;;0.89;100.00;100774.77;102616;1299;73304;-64
2023/01/04 02:33:34;;;;;;;13.60;5.10;;;;;;;0.86;100.00;100769.27;102238;1297;209445;-64
2023/01/04 02:37:00;;;;;;;13.60;5.30;;;;;;;0.84;100.00;100757.80;102228;1293;60066;-64
2023/01/04 02:40:09;;;;;;;12.50;5.40;;;;;;;0.82;100.00;100754.52;102449;1294;73569;-64
2023/01/04 02:46:33;;;;;;;13.20;4.60;;;;;;;0.82;100.00;100759.60;100785;1291;1015626;-65
2023/01/04 02:52:28;;;;;;;10.30;3.50;;;;;;;0.75;100.00;100775.31;102287;1299;60224;-63
2023/01/04 02:55:17;;;;;;;15.00;5.30;;;;;;;0.69;100.00;100780.20;102338;1297;72995;-65
2023/01/04 02:58:26;;;;;;;16.40;6.10;;;;;;;0.63;100.00;100772.65;102443;1289;68295;-63
2023/01/04 03:06:14;;;;;;;13.80;5.70;;;;;;;0.55;100.00;100761.00;102439;1292;59887;-64
2023/01/04 03:09:24;;;;;;;12.40;5.60;;;;;;;0.51;100.00;100764.22;102253;1283;61435;-64
2023/01/04 03:12:31;;;;;;;15.30;5.10;;;;;;;0.48;100.00;100760.80;102382;1294;72631;-63
2023/01/04 03:15:32;;;;;;;13.20;6.30;;;;;;;0.45;100.00;100757.73;102427;1297;67615;-62
2023/01/04 03:18:28;;;;;;;19.00;6.10;;;;;;;0.42;100.00;100753.42;102547;1299;73675;-64
2023/01/04 03:21:20;;;;;;;13.80;6.00;;;;;;;0.39;100.00;100750.04;102305;1292;59690;-63
2023/01/04 03:37:18;;;;;;;16.10;6.50;;;;;;;0.15;100.00;100735.77;102401;1291;59694;-66
2023/01/04 03:50:30;;;;;;;14.20;6.20;;;;;;;0.12;100.00;100718.05;102437;1291;72680;-63
2023/01/04 03:53:20;;;;;;;15.20;5.60;;;;;;;0.12;100.00;100716.83;102588;1297;59603;-63
2023/01/04 03:56:10;;;;;;;10.70;4.30;;;;;;;0.10;100.00;100703.09;102186;1298;60324;-63
2023/01/04 03:58:59;;;;;;;11.70;5.50;;;;;;;0.10;100.00;100691.73;102269;1292;73991;-64
2023/01/04 04:01:48;;;;;;;13.30;5.60;;;;;;;0.11;100.00;100682.12;102431;1299;68879;-63
2023/01/04 04:10:52;;;;;;;14.30;5.50;;;;;;;0.13;100.00;100664.95;102462;1299;61313;-66
2023/01/04 04:13:40;;;;;;;14.00;5.80;;;;;;;0.14;100.00;100656.73;102536;1299;74045;-64
2023/01/04 04:16:28;;;;;;;10.80;4.70;;;;;;;0.15;100.00;100657.58;102422;1296;67812;-66
2023/01/04 04:19:17;;;;;;;10.20;4.70;;;;;;;0.15;100.00;100647.27;102731;1297;74205;-65
2023/01/04 04:22:06;;;;;;;13.50;5.30;;;;;;;0.16;100.00;100642.36;102353;1299;59768;-65
2023/01/04 04:24:54;;;;;;;10.80;4.60;;;;;;;0.18;100.00;100633.77;102532;1299;60583;-64
2023/01/04 04:27:42;;;;;;;12.20;4.70;;;;;;;0.20;100.00;100624.48;102484;1298;72727;-67
2023/01/04 04:30:31;;;;;;;13.90;5.40;;;;;;;0.21;100.00;100617.81;102569;1296;67791;-63
2023/01/04 04:33:19;;;;;;;14.60;4.50;;;;;;;0.23;100.00;100617.59;102313;1299;73569;-64
2023/01/04 04:36:09;;;;;;;13.20;4.50;;;;;;;0.25;100.00;100613.19;102401;1297;59683;-63
2023/01/04 04:38:57;;;;;;;11.10;4.60;;;;;;;0.25;100.00;100614.56;102470;1299;59611;-63
2023/01/04 04:41:45;;;;;;;15.30;5.40;;;;;;;0.26;100.00;100614.02;102318;1297;72212;-63
2023/01/04 04:44:34;;;;;;;17.60;5.70;;;;;;;0.24;100.00;100611.96;102348;1291;68181;-63
2023/01/04 04:47:23;;;;;;;11.60;5.00;;;;;;;0.23;100.00;100602.05;102427;1299;72470;-63
2023/01/04 04:50:11;;;;;;;10.70;4.40;;;;;;;0.21;100.00;100593.72;102651;1297;59667;-63
2023/01/04 04:53:00;;;;;;;13.40;4.10;;;;;;;0.20;100.00;100597.41;102544;1294;60827;-65
2023/01/04 04:55:53;;;;;;;11.70;4.10;;;;;;;0.21;100.00;100593.73;102191;1291;73068;-65
2023/01/04 04:58:41;;;;;;;13.10;5.10;;;;;;;0.22;100.00;100588.65;102531;1298;69237;-66
2023/01/04 05:01:29;;;;;;;15.10;4.60;;;;;;;0.23;100.00;100577.63;102599;1297;72466;-63
2023/01/04 05:04:18;;;;;;;10.90;4.20;;;;;;;0.24;100.00;100573.59;102231;1294;59909;-63
2023/01/04 05:07:07;;;;;;;11.80;5.00;;;;;;;0.23;100.00;100571.84;102482;1299;60227;-64
2023/01/04 05:09:59;;;;;;;10.50;3.70;;;;;;;0.25;100.00;100570.23;102437;1298;73406;-64
2023/01/04 05:13:00;;;;;;;12.00;4.40;;;;;;;0.26;100.00;100567.40;102992;1288;66830;-63
2023/01/04 05:15:53;;;;;;;15.90;4.70;;;;;;;0.25;100.00;100567.27;102343;1295;73737;-64
2023/01/04 05:18:41;;;;;;;11.10;4.70;;;;;;;0.24;100.00;100566.24;102604;1299;59667;-67
2023/01/04 05:21:29;;;;;;;14.30;5.60;;;;;;;0.22;100.00;100562.81;102400;1299;61552;-65
2023/01/04 05:24:18;;;;;;;14.50;5.50;;;;;;;0.22;100.00;100558.45;102458;1294;72609;-66
2023/01/04 05:27:06;;;;;;;13.90;5.10;;;;;;;0.22;100.00;100555.64;102434;1299;66725;-64
2023/01/04 05:33:03;;;;;;;14.00;6.00;;;;;;;0.22;100.00;100536.95;102262;1299;59590;-65
2023/01/04 05:35:53;;;;;;;13.10;5.40;;;;;;;0.23;100.00;100535.56;102285;1298;59776;-65
2023/01/04 05:38:41;;;;;;;14.50;5.50;;;;;;;0.23;100.00;100529.98;102351;1294;73654;-66
2023/01/04 05:44:36;;;;;;;13.20;4.60;;;;;;;0.20;100.00;100517.68;102422;1289;71404;-69
2023/01/04 05:47:27;;;;;;;12.30;5.20;;;;;;;0.20;100.00;100510.52;102419;1296;59641;-67
2023/01/04 05:50:15;;;;;;;13.20;5.20;;;;;;;0.18;100.00;100504.63;102127;1299;61336;-69
2023/01/04 05:53:06;;;;;;;13.60;5.20;;;;;;;0.17;100.00;100500.11;102338;1294;72813;-66
2023/01/04 05:55:55;;;;;;;15.10;5.00;;;;;;;0.14;100.00;100500.36;102409;1295;67812;-67
2023/01/04 05:58:43;;;;;;;10.60;4.90;;;;;;;0.14;100.00;100498.81;102383;1294;73194;-65
2023/01/04 06:01:31;;;;;;;17.90;6.40;;;;;;;0.11;100.00;100497.64;102445;1297;59780;-64
2023/01/04 06:04:19;;;;;;;12.20;5.20;;;;;;;0.09;100.00;100493.02;102336;1297;60314;-63
2023/01/04 06:07:08;;;;;;;15.20;5.50;;;;;;;0.07;100.00;100487.83;102142;1297;71885;-68
2023/01/04 06:09:57;;;;;;;15.20;6.00;;;;;;;0.06;100.00;100479.30;102539;1297;68329;-66
2023/01/04 06:12:46;;;;;;;17.00;6.30;;;;;;;0.05;100.00;100476.18;102390;1298;73540;-66
2023/01/04 06:15:34;;;;;;;16.90;6.30;;;;;;;0.07;100.00;100470.05;102371;1299;59779;-69
2023/01/04 06:18:30;;;;;;;16.50;7.30;;;;;;;0.09;100.00;100458.09;102349;1292;60212;-65
2023/01/04 06:21:19;;;;;;;18.30;7.30;;;;;;;0.10;100.00;100450.39;102299;1296;74000;-66
2023/01/04 06:24:10;;;;;;;17.60;6.80;;;;;;;0.11;100.00;100444.27;102192;1287;67969;-67
2023/01/04 06:27:00;;;;;;;16.20;7.20;;;;;;;0.11;100.00;100441.29;102345;1295;73754;-65
2023/01/04 06:29:48;;;;;;;18.60;7.50;;;;;;;0.10;100.00;100436.25;102387;1299;59673;-67
2023/01/04 06:32:36;;;;;;;14.20;5.50;;;;;;;0.12;100.00;100425.23;102214;1299;60680;-66
2023/01/04 06:35:25;;;;;;;16.70;6.90;;;;;;;0.12;100.00;100430.81;102643;1298;73242;-67
2023/01/04 06:38:13;;;;;;;13.90;5.60;;;;;;;0.12;100.00;100429.92;102545;1294;68888;-67
2023/01/04 06:41:02;;;;;;;16.30;4.90;;;;;;;0.11;100.00;100425.59;102359;1293;71721;-65
2023/01/04 06:43:50;;;;;;;18.50;7.30;;;;;;;0.12;100.00;100419.82;102415;1295;59847;-68
2023/01/04 06:46:39;;;;;;;15.60;6.60;;;;;;;0.13;100.00;100414.54;102370;1299;61088;-66
2023/01/04 06:49:28;;;;;;;14.70;6.30;;;;;;;0.13;100.00;100410.51;102419;1299;73899;-66
2023/01/04 06:52:16;;;;;;;15.40;5.90;;;;;;;0.14;100.00;100399.50;102616;1294;67795;-68
2023/01/04 06:55:08;;;;;;;14.50;7.00;;;;;;;0.15;100.00;100395.80;102209;1299;73402;-67
2023/01/04 06:57:57;;;;;;;15.60;6.00;;;;;;;0.18;100.00;100389.10;102410;1291;59785;-68
2023/01/04 07:00:46;;;;;;;15.30;6.20;;;;;;;0.20;100.00;100375.61;102218;1299;60403;-67
2023/01/04 07:03:35;;;;;;;16.90;5.60;;;;;;;0.23;99.98;100371.30;102656;1283;72886;-65
2023/01/04 07:06:23;;;;;;;15.50;5.80;;;;;;;0.28;99.80;100364.18;102476;1292;68797;-66
2023/01/04 07:09:12;;;;;;;17.70;6.50;;;;;;;0.32;99.61;100360.75;102616;1294;72630;-70
2023/01/04 07:12:02;;;;;;;15.80;5.50;;;;;;;0.35;99.73;100359.95;102482;1294;59731;-68
2023/01/04 07:14:50;;;;;;;14.80;5.60;;;;;;;0.39;99.29;100359.50;102512;1295;60160;-67
2023/01/04 07:17:39;;;;;;;13.10;5.50;;;;;;;0.42;98.98;100352.96;102662;1299;73513;-68
2023/01/04 07:20:28;;;;;;;12.90;5.60;;;;;;;0.43;98.73;100346.27;102357;1298;68854;-69
2023/01/04 07:23:16;;;;;;;20.40;5.20;;;;;;;0.47;98.49;100342.48;102296;1298;72797;-65
2023/01/04 07:26:04;;;;;;;13.10;4.50;;;;;;;0.50;98.13;100345.70;102484;1300;60042;-67
2023/01/04 07:29:14;;;;;;;12.50;4.80;;;;;;;0.54;97.58;100347.00;102507;1296;61835;-67
2023/01/04 07:32:03;;;;;;;10.10;3.60;;;;;;;0.59;97.29;100340.02;102361;1299;73069;-67
2023/01/04 07:34:58;;;;;;;13.80;4.50;;;;;;;0.63;96.82;100335.35;102149;1291;66802;-67
2023/01/04 07:37:46;;;;;;;12.60;4.30;;;;;;;0.67;96.65;100329.44;102276;1299;73513;-66
2023/01/04 07:40:42;;;;;;;13.50;5.50;;;;;;;0.71;96.46;100322.18;102325;1299;59906;-66
2023/01/04 07:43:45;;;;;;;11.10;4.20;;;;;;;0.75;96.72;100314.16;102134;1294;59654;-66
2023/01/04 07:46:34;;;;;;;14.70;6.10;;;;;;;0.80;96.57;100311.40;102394;1291;74060;-66
2023/01/04 07:49:23;;;;;;;15.00;6.10;;;;;;;0.85;96.37;100308.42;102244;1300;67895;-64
2023/01/04 07:52:13;;;;;;;18.90;6.30;;;;;;;0.91;96.42;100301.25;102343;1305;73755;-66
2023/01/04 07:55:01;;;;;;;14.80;6.30;;;;;;;0.98;96.44;100292.61;102263;1291;59772;-66
2023/01/04 07:57:53;;;;;;;14.70;5.60;;;;;;;1.00;96.09;100276.80;102097;1298;59600;-66
2023/01/04 08:00:41;;;;;;;13.50;4.50;;;;;;;1.08;95.99;100271.30;102366;1298;73111;-67
2023/01/04 08:03:29;;;;;;;14.50;5.60;;;;;;;1.12;95.88;100270.08;102107;1297;68330;-64
2023/01/04 08:06:20;;;;;;;13.00;4.40;;;;;;;1.16;95.91;100255.45;102041;1295;72985;-68
2023/01/04 08:09:10;;;;;;;15.50;5.70;;;;;;;1.20;95.84;100242.56;102312;1297;59903;-67
2023/01/04 08:11:59;;;;;;;15.90;5.50;;;;;;;1.25;95.89;100234.68;101710;1292;1003821;-65
2023/01/04 08:14:48;;;;;;;16.20;5.90;;;;;;;1.31;95.75;100225.92;102237;1297;72121;-69
2023/01/04 08:17:40;;;;;;;13.10;5.30;;;;;;;1.34;95.42;100215.27;102266;1298;68788;-66
2023/01/04 08:20:28;;;;;;;15.50;5.80;;;;;;;1.36;95.39;100205.23;102215;1298;72411;-65
2023/01/04 08:23:16;;;;;;;14.50;6.00;;;;;;;1.39;95.47;100207.60;102325;1297;59706;-64
2023/01/04 08:26:11;;;;;;;14.00;6.20;;;;;;;1.43;95.39;100201.87;102258;1297;60813;-64
2023/01/04 08:28:59;;;;;;;16.10;5.30;;;;;;;1.45;95.35;100199.17;102294;1297;74218;-65
2023/01/04 08:31:47;;;;;;;12.70;5.80;;;;;;;1.48;95.31;100195.04;102396;1298;69326;-65
2023/01/04 08:34:36;;;;;;;10.70;5.00;;;;;;;1.50;95.06;100188.64;102329;1297;73715;-67
2023/01/04 08:37:24;;;;;;;15.50;6.00;;;;;;;1.48;94.65;100183.48;102268;1297;59673;-64
2023/01/04 08:40:12;;;;;;;14.40;6.20;;;;;;;1.49;94.60;100176.11;102308;1291;61331;-65
2023/01/04 08:43:01;;;;;;;15.20;5.60;;;;;;;1.49;95.04;100174.85;102286;1299;74072;-67
2023/01/04 08:45:51;;;;;;;14.10;5.70;;;;;;;1.49;95.07;100164.20;99432;1297;1003873;-65
2023/01/04 08:48:43;;;;;;;13.70;6.10;;;;;;;1.49;95.25;100160.88;102211;1291;72067;-65
2023/01/04 08:51:31;;;;;;;12.80;5.20;;;;;;;1.49;95.09;100151.96;102264;1296;59682;-67
2023/01/04 08:54:21;;;;;;;14.90;5.70;;;;;;;1.49;95.10;100147.95;102281;1298;60823;-66
2023/01/04 08:57:10;;;;;;;13.40;5.50;;;;;;;1.46;94.84;100135.13;102335;1298;74027;-65
2023/01/04 08:59:58;;;;;;;12.70;5.60;;;;;;;1.47;95.23;100125.81;102248;1302;67772;-64
2023/01/04 09:02:46;;;;;;;15.20;6.20;;;;;;;1.48;95.00;100115.96;102327;1305;73649;-66
2023/01/04 09:05:36;;;;;;;14.60;5.90;;;;;;;1.48;94.88;100114.92;102249;1298;59631;-66
2023/01/04 09:08:23;;;;;;;14.60;6.70;;;;;;;1.45;94.62;100101.58;102336;1299;59770;-68
2023/01/04 09:11:15;;;;;;;12.60;5.40;;;;;;;1.44;94.81;100093.73;102030;1297;73952;-68
2023/01/04 09:14:04;;;;;;;14.20;6.00;;;;;;;1.43;94.94;100083.50;102243;1299;68787;-67
2023/01/04 09:16:56;;;;;;;14.10;5.20;;;;;;;1.43;95.40;100086.46;102283;1298;73725;-67
2023/01/04 09:19:44;;;;;;;12.60;5.50;;;;;;;1.45;95.39;100079.02;102381;1300;59816;-68
2023/01/04 09:22:33;;;;;;;15.50;6.70;;;;;;;1.46;95.44;100073.20;102376;1294;60333;-68
2023/01/04 09:25:24;;;;;;;13.30;6.30;;;;;;;1.47;95.29;100070.21;101174;1291;1003866;-68
2023/01/04 09:28:12;;;;;;;16.00;6.30;;;;;;;1.49;95.47;100061.21;102480;1298;67790;-68
2023/01/04 09:31:14;;;;;;;14.90;5.80;;;;;;;1.53;95.65;100051.77;102488;1295;73206;-68
2023/01/04 09:34:02;;;;;;;17.10;7.30;;;;;;;1.53;95.63;100045.81;102266;1299;59647;-66
2023/01/04 09:37:06;;;;;;;15.90;6.40;;;;;;;1.55;95.50;100038.56;102654;1299;60832;-68
2023/01/04 09:39:54;;;;;;;14.10;6.00;;;;;;;1.55;95.60;100025.48;102167;1294;72102;-68
2023/01/04 09:42:44;;;;;;;14.80;7.20;;;;;;;1.54;95.64;100009.77;102278;1298;67774;-66
2023/01/04 09:45:32;;;;;;;19.00;7.80;;;;;;;1.54;95.90;99997.89;102398;1299;73189;-68
2023/01/04 09:48:28;;;;;;;18.00;8.50;;;;;;;1.52;96.09;99982.71;102456;1299;60004;-68
2023/01/04 09:51:19;;;;;;;18.00;9.00;;;;;;;1.59;96.03;99974.40;102670;1289;60301;-67
2023/01/04 09:54:19;;;;;;;19.70;9.10;;;;;;;1.63;95.96;99966.53;102450;1300;74093;-66
2023/01/04 09:57:41;;;;;;;21.80;9.90;;;;;;;1.63;95.68;99945.21;102515;1291;68022;-67
2023/01/04 10:00:43;;;;;;;19.50;9.10;;;;;;;1.66;95.87;99933.90;102416;1298;73760;-67
2023/01/04 10:03:38;;;;;;;19.60;8.80;;;;;;;1.67;96.18;99907.92;102483;1299;60381;-68
2023/01/04 10:06:32;;;;;;;21.30;9.50;;;;;;;1.74;96.17;99915.87;102371;1299;61176;-65
2023/01/04 10:09:21;;;;;;;19.30;9.20;;;;;;;1.81;96.25;99910.31;102460;1299;73825;-66
2023/01/04 10:12:30;;;;;;;25.10;11.00;;;;;;;1.83;95.84;99893.60;102525;1295;68813;-66
2023/01/04 10:15:40;;;;;;;22.70;11.80;;;;;;;1.89;95.71;99866.57;102391;1291;73676;-69
2023/01/04 10:18:55;;;;;;;20.50;10.20;;;;;;;1.89;95.69;99861.49;102779;1295;60234;-68
2023/01/04 10:22:53;;;;;;;23.90;10.80;;;;;;;1.91;95.73;99846.56;102175;1295;59607;-67
2023/01/04 10:26:14;;;;;;;24.50;10.20;;;;;;;1.93;95.58;99849.43;102143;1298;72984;-67
2023/01/04 10:29:29;;;;;;;16.70;9.00;;;;;;;1.96;95.72;99841.96;102508;1293;68566;-68
2023/01/04 10:32:27;;;;;;;21.60;9.00;;;;;;;1.96;95.63;99828.96;102401;1300;72983;-65
2023/01/04 10:35:26;;;;;;;18.60;9.50;;;;;;;1.97;95.73;99825.79;102316;1299;59651;-68
2023/01/04 10:38:22;;;;;;;20.30;10.10;;;;;;;1.99;95.99;99818.86;102382;1299;60987;-68
2023/01/04 10:41:20;;;;;;;21.90;11.10;;;;;;;1.99;95.90;99812.58;102332;1299;72834;-68
2023/01/04 10:44:38;;;;;;;19.80;10.30;;;;;;;1.99;96.04;99799.25;102398;1297;67763;-68
2023/01/04 10:47:38;;;;;;;23.50;9.90;;;;;;;2.01;96.12;99790.27;102434;1294;72642;-67
2023/01/04 10:50:30;;;;;;;24.20;11.80;;;;;;;2.01;96.32;99766.10;102319;1295;59681;-66
2023/01/04 10:53:47;;;;;;;22.70;11.10;;;;;;;2.02;96.28;99762.88;102131;1293;60147;-67
2023/01/04 10:56:48;;;;;;;21.80;10.90;;;;;;;2.05;96.33;99748.09;102424;1301;72861;-67
2023/01/04 10:59:54;;;;;;;26.60;12.30;;;;;;;2.08;96.42;99741.11;102348;1297;67582;-67
2023/01/04 11:03:11;;;;;;;26.60;12.90;;;;;;;2.09;96.33;99726.02;102348;1291;73183;-66
2023/01/04 11:06:24;;;;;;;22.80;11.80;;;;;;;2.11;96.40;99712.99;102404;1291;59716;-69
2023/01/04 11:09:26;;;;;;;20.20;10.70;;;;;;;2.11;96.31;99708.24;102433;1294;60930;-68
2023/01/04 11:12:18;;;;;;;24.40;12.00;;;;;;;2.13;96.13;99694.33;102430;1294;73004;-66
2023/01/04 11:15:07;;;;;;;21.10;12.10;;;;;;;2.13;96.10;99685.58;102525;1298;68846;-67
2023/01/04 11:17:59;;;;;;;27.00;12.00;;;;;;;2.13;96.17;99667.53;102347;1299;73743;-68
2023/01/04 11:20:47;;;;;;;24.10;11.90;;;;;;;2.11;96.10;99655.89;102334;1299;59655;-66
2023/01/04 11:23:37;;;;;;;23.60;11.40;;;;;;;2.13;96.18;99647.08;102420;1294;60327;-67
2023/01/04 11:26:37;;;;;;;18.50;8.90;;;;;;;2.15;96.12;99642.04;102582;1295;73924;-68
2023/01/04 11:30:11;;;;;;;23.10;11.80;;;;;;;2.17;96.09;99638.80;102623;1298;68359;-69
2023/01/04 11:33:18;;;;;;;23.80;12.00;;;;;;;2.20;96.26;99636.92;101764;1303;72669;-67
2023/01/04 11:36:07;;;;;;;24.20;11.80;;;;;;;2.21;96.24;99615.48;102225;1296;59784;-67
2023/01/04 11:38:56;;;;;;;20.30;11.10;;;;;;;2.23;96.08;99617.86;101994;1302;60364;-68
2023/01/04 11:42:03;;;;;;;27.30;13.30;;;;;;;2.23;96.22;99611.04;101787;1301;73028;-67
2023/01/04 11:44:58;;;;;;;25.70;13.20;;;;;;;2.24;96.28;99605.55;102170;1301;68846;-66
2023/01/04 11:47:53;;;;;;;27.40;13.40;;;;;;;2.27;96.29;99587.58;101765;1302;72507;-66
2023/01/04 11:50:47;;;;;;;23.80;11.20;;;;;;;2.27;96.30;99571.43;101894;1305;59690;-66
2023/01/04 11:53:36;;;;;;;20.00;9.90;;;;;;;2.31;96.92;99561.08;101900;1305;60401;-65
2023/01/04 11:56:51;;;;;;;27.50;13.70;;;;;;;2.29;97.43;99547.02;101638;1304;74317;-66
2023/01/04 11:59:39;;;;;;;25.30;13.60;;;;;;;2.27;98.03;99528.76;101872;1303;67630;-67
2023/01/04 12:02:29;;;;;;;25.60;13.30;;;;;;;2.24;98.63;99521.54;102007;1308;73087;-68
2023/01/04 12:05:40;;;;;;;24.70;12.40;;;;;;;2.16;99.32;99517.00;102056;1305;59934;-68
2023/01/04 12:08:35;;;;;;;30.20;13.30;;;;;;;2.12;99.99;99502.18;101692;1302;59693;-68
2023/01/04 12:11:30;;;;;;;28.10;15.10;;;;;;;2.10;100.00;99491.27;102302;1299;74074;-68
2023/01/04 12:14:33;;;;;;;26.60;12.70;;;;;;;2.10;100.00;99480.77;102399;1289;69341;-67
2023/01/04 12:17:41;;;;;;;27.80;14.40;;;;;;;2.10;100.00;99464.83;102420;1299;73131;-65
2023/01/04 12:20:30;;;;;;;28.80;13.60;;;;;;;2.13;100.00;99447.90;102253;1291;59703;-67
2023/01/04 12:23:19;;;;;;;23.20;11.30;;;;;;;2.15;100.00;99441.48;102352;1299;59687;-66
2023/01/04 12:26:11;;;;;;;28.40;13.80;;;;;;;2.15;100.00;99431.15;102065;1299;73015;-67
2023/01/04 12:29:21;;;;;;;26.80;13.30;;;;;;;2.18;100.00;99424.67;99769;1296;1003819;-66
2023/01/04 12:32:10;;;;;;;26.20;12.70;;;;;;;2.19;100.00;99411.98;102288;1282;72731;-67
2023/01/04 12:34:58;;;;;;;22.50;11.30;;;;;;;2.21;100.00;99398.14;102143;1298;59671;-69
2023/01/04 12:37:49;;;;;;;26.50;13.50;;;;;;;2.24;100.00;99395.84;102329;1301;59648;-69
2023/01/04 12:40:43;;;;;;;24.70;11.90;;;;;;;2.26;100.00;99381.92;102310;1291;74151;-69
2023/01/04 12:43:37;;;;;;;23.70;11.70;;;;;;;2.26;100.00;99368.41;102515;1298;67456;-68
2023/01/04 12:50:15;;;;;;;23.90;13.40;;;;;;;2.29;100.00;99334.67;102249;1292;59654;-67
2023/01/04 12:53:04;;;;;;;22.80;11.10;;;;;;;2.27;100.00;99321.96;102611;1285;61579;-68
2023/01/04 12:56:13;;;;;;;25.30;13.00;;;;;;;2.25;100.00;99305.85;102311;1298;72484;-66
2023/01/04 12:59:13;;;;;;;19.40;10.10;;;;;;;2.27;100.00;99298.89;102288;1293;67335;-67
2023/01/04 13:02:22;;;;;;;22.60;12.40;;;;;;;2.26;100.00;99287.75;102024;1297;72675;-67
2023/01/04 13:05:20;;;;;;;24.60;10.60;;;;;;;2.27;100.00;99270.52;102322;1297;59641;-68
2023/01/04 13:08:32;;;;;;;28.80;14.20;;;;;;;2.28;100.00;99253.12;102138;1292;59966;-65
2023/01/04 13:12:08;;;;;;;24.00;12.40;;;;;;;2.28;100.00;99247.16;102297;1299;73004;-68
2023/01/04 13:15:04;;;;;;;23.40;11.20;;;;;;;2.29;100.00;99230.66;101979;1297;68634;-68
2023/01/04 13:17:53;;;;;;;27.00;12.70;;;;;;;2.30;100.00;99222.23;102388;1299;73704;-65
2023/01/04 13:20:41;;;;;;;25.20;11.70;;;;;;;2.31;100.00;99222.16;102332;1299;59685;-67
2023/01/04 13:23:32;;;;;;;24.20;12.50;;;;;;;2.31;100.00;99210.08;102478;1290;60399;-67
2023/01/04 13:26:47;;;;;;;21.30;11.20;;;;;;;2.30;100.00;99202.61;102307;1298;71650;-67
2023/01/04 13:29:36;;;;;;;22.10;12.70;;;;;;;2.32;100.00;99192.52;102281;1297;66272;-68
2023/01/04 13:32:33;;;;;;;22.40;11.30;;;;;;;2.31;100.00;99186.75;102608;1289;74095;-68
2023/01/04 13:35:41;;;;;;;21.40;10.90;;;;;;;2.32;100.00;99181.14;102769;1291;59763;-67
2023/01/04 13:38:33;;;;;;;25.30;11.50;;;;;;;2.33;100.00;99169.19;102488;1291;59916;-67
2023/01/04 13:41:22;;;;;;;24.20;12.40;;;;;;;2.33;100.00;99160.27;102622;1291;74057;-66
2023/01/04 13:44:23;;;;;;;19.20;10.40;;;;;;;2.34;100.00;99155.09;102146;1289;67364;-66
2023/01/04 13:47:36;;;;;;;23.00;10.30;;;;;;;2.35;100.00;99150.14;102541;1297;72947;-68
2023/01/04 13:50:45;;;;;;;22.20;11.50;;;;;;;2.36;100.00;99141.67;102475;1299;60829;-66
2023/01/04 13:53:34;;;;;;;21.40;9.70;;;;;;;2.38;100.00;99132.83;102444;1297;61171;-67
2023/01/04 13:56:26;;;;;;;22.00;10.80;;;;;;;2.39;100.00;99123.83;102330;1297;73033;-67
2023/01/04 13:59:15;;;;;;;23.20;10.50;;;;;;;2.41;100.00;99114.77;102493;1298;67100;-67
2023/01/04 14:02:16;;;;;;;20.40;9.90;;;;;;;2.44;100.00;99110.73;102589;1299;73787;-69
2023/01/04 14:05:17;;;;;;;19.10;9.20;;;;;;;2.46;100.00;99100.66;102393;1298;59746;-67
2023/01/04 14:08:10;;;;;;;24.60;11.30;;;;;;;2.46;100.00;99088.42;102543;1299;59660;-68